KLCK/LCK METAR and TAF weather

Enter ICAO airport designator
Station Type Date Time Source
KLCK METAR 2022/08/12 13:55 UTC NOAA

KLCK 121355Z AUTO 04007KT 10SM CLR 20/14 A3019 RMK AO2 T02020135


Station Type Date Time Source
KLCK Decoded METAR 2022/08/12 13:55 UTC NOAA

Rickenbacker Air National Guard Base, OH, United States (KLCK) 39-49N 082-56W
Aug 12, 2022 - 09:55 AM EDT / 2022.08.12 1355 UTC
Wind: from the NE (040 degrees) at 8 MPH (7 KT):0
Visibility: 10 mile(s):0
Sky conditions: clear
Temperature: 68.4 F (20.2 C)
Dew Point: 56.3 F (13.5 C)
Relative Humidity: 65%
Pressure (altimeter): 30.19 in. Hg (1022 hPa)
ob: KLCK 121355Z AUTO 04007KT 10SM CLR 20/14 A3019 RMK AO2 T02020135
cycle: 14

Station Type Date Time Source
KLCK TAF 2022/08/12 12:24 UTC NOAA

TAF KLCK 121120Z 1212/1312 02008KT P6SM FEW050
FM130000 36004KT P6SM SCT250

Example: see airport list